createdAt,value
2019-03-01T00:01:18.527Z,100603.04
2019-03-01T00:03:52.835Z,100610.09
2019-03-01T00:06:30.282Z,100611.55
2019-03-01T00:09:05.641Z,100614.05
2019-03-01T00:11:43.073Z,100619.11
2019-03-01T00:14:23.539Z,100612.66
2019-03-01T00:17:23.908Z,100611.77
2019-03-01T00:20:21.321Z,100610.98
2019-03-01T00:23:21.604Z,100614.78
2019-03-01T00:26:02.366Z,100608.73
2019-03-01T00:28:37.774Z,100604.22
2019-03-01T00:31:34.871Z,100604.58
2019-03-01T00:34:18.444Z,100608.80
2019-03-01T00:36:50.268Z,100607.05
2019-03-01T00:39:22.186Z,100609.48
2019-03-01T00:42:17.951Z,100605.51
2019-03-01T00:44:48.373Z,100594.53
2019-03-01T00:47:17.335Z,100596.06
2019-03-01T00:49:45.941Z,100594.67
2019-03-01T00:52:14.547Z,100596.31
2019-03-01T00:54:43.160Z,100602.08
2019-03-01T00:57:12.048Z,100592.73
2019-03-01T00:59:40.721Z,100586.09
2019-03-01T01:02:09.582Z,100586.98
2019-03-01T01:04:38.212Z,100582.70
2019-03-01T01:07:06.786Z,100576.53
2019-03-01T01:09:35.360Z,100573.88
2019-03-01T01:12:03.873Z,100574.58
2019-03-01T01:14:32.475Z,100572.83
2019-03-01T01:17:01.057Z,100576.81
2019-03-01T01:19:29.601Z,100576.86
2019-03-01T01:21:58.109Z,100574.70
2019-03-01T01:24:26.666Z,100572.52
2019-03-01T01:26:55.170Z,100570.16
2019-03-01T01:29:23.782Z,100560.56
2019-03-01T01:31:52.299Z,100559.95
2019-03-01T01:34:20.902Z,100555.87
2019-03-01T01:36:49.433Z,100551.96
2019-03-01T01:39:18.149Z,100549.78
2019-03-01T01:41:48.220Z,100537.29
2019-03-01T01:44:16.822Z,100525.78
2019-03-01T01:46:45.342Z,100515.19
2019-03-01T01:49:13.969Z,100511.12
2019-03-01T01:51:42.491Z,100519.89
2019-03-01T01:54:11.073Z,100515.34
2019-03-01T01:56:39.698Z,100521.02
2019-03-01T01:59:08.415Z,100518.01
2019-03-01T02:01:36.939Z,100513.12
2019-03-01T02:04:05.551Z,100510.03
2019-03-01T02:06:34.172Z,100505.14
2019-03-01T02:09:02.809Z,100495.08
2019-03-01T02:11:31.356Z,100502.47
2019-03-01T02:14:00.077Z,100507.31
2019-03-01T02:16:28.666Z,100505.98
2019-03-01T02:18:58.112Z,100510.39
2019-03-01T02:21:26.704Z,100503.59
2019-03-01T02:23:55.311Z,100494.84
2019-03-01T02:26:23.862Z,100490.51
2019-03-01T02:28:52.554Z,100486.48
2019-03-01T02:31:21.162Z,100490.88
2019-03-01T02:33:49.843Z,100497.95
2019-03-01T02:36:18.360Z,100496.25
2019-03-01T02:38:47.060Z,100497.16
2019-03-01T02:41:15.667Z,100480.17
2019-03-01T02:43:44.266Z,100481.05
2019-03-01T02:46:12.886Z,100483.77
2019-03-01T02:48:41.499Z,100489.23
2019-03-01T02:51:10.021Z,100485.86
2019-03-01T02:53:38.660Z,100492.90
2019-03-01T02:56:07.212Z,100486.66
2019-03-01T02:58:35.761Z,100479.58
2019-03-01T03:01:04.269Z,100485.04
2019-03-01T03:03:32.817Z,100474.97
2019-03-01T03:06:08.722Z,100470.97
2019-03-01T03:08:37.395Z,100474.81
2019-03-01T03:11:05.939Z,100470.39
2019-03-01T03:13:34.546Z,100467.63
2019-03-01T03:16:03.134Z,100460.86
2019-03-01T03:18:31.853Z,100458.98
2019-03-01T03:21:00.425Z,100456.80
2019-03-01T03:23:29.475Z,100460.33
2019-03-01T03:25:58.015Z,100451.30
2019-03-01T03:28:26.633Z,100456.23
2019-03-01T03:30:55.230Z,100448.07
2019-03-01T03:33:23.845Z,100457.89
2019-03-01T03:35:52.460Z,100454.63
2019-03-01T03:38:21.199Z,100459.24
2019-03-01T03:40:49.708Z,100455.13
2019-03-01T03:43:18.376Z,100452.36
2019-03-01T03:45:46.995Z,100449.09
2019-03-01T03:48:15.532Z,100457.33
2019-03-01T03:50:44.062Z,100459.47
2019-03-01T03:53:12.653Z,100448.34
2019-03-01T03:55:41.324Z,100452.42
2019-03-01T03:58:09.870Z,100445.65
2019-03-01T04:00:38.391Z,100439.66
2019-03-01T04:03:06.934Z,100439.66
2019-03-01T04:05:35.450Z,100442.97
2019-03-01T04:08:04.009Z,100452.20
2019-03-01T04:10:32.522Z,100441.36
2019-03-01T04:13:01.088Z,100444.34
2019-03-01T04:15:29.621Z,100447.57
2019-03-01T04:17:58.273Z,100441.88
2019-03-01T04:20:27.158Z,100438.93
2019-03-01T04:22:55.733Z,100438.06
2019-03-01T04:25:24.295Z,100432.64
2019-03-01T04:27:53.538Z,100434.25
2019-03-01T04:30:22.350Z,100430.45
2019-03-01T04:32:50.896Z,100420.96
2019-03-01T04:35:19.411Z,100422.56
2019-03-01T04:37:48.000Z,100413.57
2019-03-01T04:40:16.929Z,100408.16
2019-03-01T04:42:45.547Z,100404.08
2019-03-01T04:45:15.968Z,100406.25
2019-03-01T04:47:44.577Z,100402.72
2019-03-01T04:50:13.442Z,100395.36
2019-03-01T04:52:42.416Z,100395.38
2019-03-01T04:55:25.131Z,100389.10
2019-03-01T04:57:54.214Z,100393.18
2019-03-01T05:00:25.295Z,100390.45
2019-03-01T05:02:54.252Z,100382.00
2019-03-01T05:05:22.843Z,100375.48
2019-03-01T05:07:51.455Z,100367.34
2019-03-01T05:10:20.106Z,100360.45
2019-03-01T05:12:48.863Z,100361.86
2019-03-01T05:15:19.419Z,100359.41
2019-03-01T05:17:48.078Z,100365.13
2019-03-01T05:20:16.660Z,100364.85
2019-03-01T05:22:45.255Z,100358.85
2019-03-01T05:25:14.723Z,100361.05
2019-03-01T05:27:43.363Z,100356.41
2019-03-01T05:30:14.889Z,100367.80
2019-03-01T05:32:43.445Z,100370.80
2019-03-01T05:35:12.328Z,100367.05
2019-03-01T05:37:40.927Z,100370.56
2019-03-01T05:40:13.929Z,100358.84
2019-03-01T05:42:43.513Z,100360.76
2019-03-01T05:45:17.983Z,100367.03
2019-03-01T05:47:46.650Z,100362.65
2019-03-01T05:50:16.010Z,100361.28
2019-03-01T05:52:44.630Z,100361.79
2019-03-01T05:55:13.919Z,100357.45
2019-03-01T05:58:18.668Z,100358.50
2019-03-01T06:00:47.778Z,100366.70
2019-03-01T06:03:30.956Z,100367.80
2019-03-01T06:05:59.582Z,100368.64
2019-03-01T06:08:34.030Z,100362.39
2019-03-01T06:11:05.479Z,100371.07
2019-03-01T06:13:39.951Z,100363.75
2019-03-01T06:16:11.708Z,100363.18
2019-03-01T06:18:55.391Z,100368.08
2019-03-01T06:21:32.713Z,100371.59
2019-03-01T06:24:13.360Z,100372.95
2019-03-01T06:26:48.115Z,100370.75
2019-03-01T06:29:31.583Z,100363.77
2019-03-01T06:32:27.360Z,100367.86
2019-03-01T06:35:01.766Z,100373.28
2019-03-01T06:37:45.243Z,100367.28
2019-03-01T06:40:43.053Z,100375.75
2019-03-01T06:43:32.994Z,100384.48
2019-03-01T06:46:13.633Z,100391.81
2019-03-01T06:48:43.912Z,100386.11
2019-03-01T06:51:14.169Z,100383.95
2019-03-01T06:53:43.017Z,100385.58
2019-03-01T06:56:11.576Z,100388.30
2019-03-01T06:58:40.165Z,100385.84
2019-03-01T07:01:10.413Z,100383.17
2019-03-01T07:03:39.388Z,100392.96
2019-03-01T07:06:07.959Z,100395.16
2019-03-01T07:08:36.498Z,100394.36
2019-03-01T07:11:06.060Z,100405.51
2019-03-01T07:13:34.613Z,100402.80
2019-03-01T07:16:03.180Z,100403.61
2019-03-01T07:18:33.144Z,100405.80
2019-03-01T07:21:02.067Z,100402.20
2019-03-01T07:23:36.768Z,100403.90
2019-03-01T07:26:00.848Z,100406.08
2019-03-01T07:28:29.740Z,100404.69
2019-03-01T07:30:58.324Z,100413.34
2019-03-01T07:33:26.869Z,100412.61
2019-03-01T07:35:55.441Z,100411.17
2019-03-01T07:38:24.290Z,100414.70
2019-03-01T07:40:53.066Z,100403.85
2019-03-01T07:43:21.585Z,100408.77
2019-03-01T07:45:50.216Z,100409.34
2019-03-01T07:48:18.759Z,100409.06
2019-03-01T07:50:48.386Z,100409.87
2019-03-01T07:53:17.388Z,100412.60
2019-03-01T07:55:46.699Z,100415.32
2019-03-01T07:58:15.371Z,100415.05
2019-03-01T08:00:46.719Z,100415.59
2019-03-01T08:03:15.212Z,100408.77
2019-03-01T08:05:44.580Z,100408.52
2019-03-01T08:08:13.143Z,100403.89
2019-03-01T08:10:41.833Z,100410.12
2019-03-01T08:13:10.473Z,100412.08
2019-03-01T08:15:40.770Z,100416.16
2019-03-01T08:18:09.709Z,100414.23
2019-03-01T08:20:38.236Z,100409.36
2019-03-01T08:23:06.797Z,100414.24
2019-03-01T08:25:35.323Z,100410.95
2019-03-01T08:28:03.891Z,100411.52
2019-03-01T08:30:32.419Z,100412.89
2019-03-01T08:33:02.686Z,100406.63
2019-03-01T08:35:32.331Z,100415.34
2019-03-01T08:38:01.182Z,100408.25
2019-03-01T08:40:29.819Z,100405.78
2019-03-01T08:42:58.452Z,100407.70
2019-03-01T08:45:29.761Z,100410.13
2019-03-01T08:47:58.916Z,100409.57
2019-03-01T08:50:27.494Z,100417.78
2019-03-01T08:52:56.056Z,100417.50
2019-03-01T08:55:27.205Z,100422.14
2019-03-01T08:57:59.454Z,100412.88
2019-03-01T09:00:35.469Z,100413.70
2019-03-01T09:03:10.251Z,100415.03
2019-03-01T09:05:38.827Z,100427.02
2019-03-01T09:08:07.365Z,100419.97
2019-03-01T09:10:36.134Z,100421.81
2019-03-01T09:13:04.870Z,100428.41
2019-03-01T09:15:33.537Z,100422.14
2019-03-01T09:18:02.108Z,100430.86
2019-03-01T09:20:32.523Z,100427.02
2019-03-01T09:23:04.871Z,100433.03
2019-03-01T09:25:41.355Z,100436.81
2019-03-01T09:28:09.175Z,100438.20
2019-03-01T09:30:40.315Z,100434.36
2019-03-01T09:33:08.235Z,100434.65
2019-03-01T09:35:39.785Z,100432.73
2019-03-01T09:38:08.701Z,100434.13
2019-03-01T09:40:37.323Z,100426.77
2019-03-01T09:43:05.976Z,100427.02
2019-03-01T09:45:36.458Z,100433.78
2019-03-01T09:48:05.173Z,100438.46
2019-03-01T09:50:34.589Z,100437.30
2019-03-01T09:53:04.460Z,100437.59
2019-03-01T09:55:34.775Z,100434.08
2019-03-01T09:58:03.331Z,100444.18
2019-03-01T10:00:41.060Z,100445.55
2019-03-01T10:03:09.624Z,100441.76
2019-03-01T10:05:38.179Z,100439.56
2019-03-01T10:08:07.774Z,100440.37
2019-03-01T10:10:36.429Z,100435.47
2019-03-01T10:13:05.061Z,100441.20
2019-03-01T10:15:33.716Z,100441.72
2019-03-01T10:18:02.391Z,100441.45
2019-03-01T10:20:31.331Z,100435.42
2019-03-01T10:22:59.937Z,100438.19
2019-03-01T10:25:28.563Z,100447.97
2019-03-01T10:27:57.179Z,100446.03
2019-03-01T10:30:27.965Z,100445.25
2019-03-01T10:32:56.614Z,100447.74
2019-03-01T10:35:25.158Z,100447.98
2019-03-01T10:37:53.915Z,100453.17
2019-03-01T10:40:25.242Z,100450.97
2019-03-01T10:42:54.186Z,100458.85
2019-03-01T10:45:25.095Z,100456.45
2019-03-01T10:47:53.739Z,100466.48
2019-03-01T10:50:23.759Z,100464.59
2019-03-01T10:52:52.922Z,100467.08
2019-03-01T10:55:22.468Z,100469.52
2019-03-01T10:57:51.899Z,100470.87
2019-03-01T11:00:22.113Z,100469.27
2019-03-01T11:02:50.790Z,100476.59
2019-03-01T11:05:19.384Z,100477.70
2019-03-01T11:07:49.018Z,100479.08
2019-03-01T11:10:26.729Z,100479.34
2019-03-01T11:12:55.318Z,100475.28
2019-03-01T11:15:23.884Z,100482.36
2019-03-01T11:17:52.447Z,100490.25
2019-03-01T11:20:22.787Z,100489.98
2019-03-01T11:22:52.613Z,100489.71
2019-03-01T11:25:26.040Z,100498.70
2019-03-01T11:27:55.674Z,100497.08
2019-03-01T11:30:27.453Z,100494.61
2019-03-01T11:32:56.030Z,100500.88
2019-03-01T11:35:24.714Z,100497.88
2019-03-01T11:37:53.480Z,100492.44
2019-03-01T11:40:27.920Z,100489.14
2019-03-01T11:42:56.669Z,100493.24
2019-03-01T11:45:25.196Z,100486.45
2019-03-01T11:47:54.016Z,100499.81
2019-03-01T11:50:24.259Z,100495.16
2019-03-01T11:52:52.957Z,100503.06
2019-03-01T11:55:21.956Z,100501.97
2019-03-01T11:57:50.752Z,100506.05
2019-03-01T12:00:26.424Z,100501.97
2019-03-01T12:02:55.089Z,100503.61
2019-03-01T12:05:23.867Z,100504.69
2019-03-01T12:07:52.498Z,100495.43
2019-03-01T12:10:31.973Z,100503.05
2019-03-01T12:13:00.669Z,100509.06
2019-03-01T12:15:29.207Z,100511.25
2019-03-01T12:17:59.235Z,100509.59
2019-03-01T12:20:32.312Z,100516.41
2019-03-01T12:23:01.988Z,100513.95
2019-03-01T12:25:30.483Z,100511.23
2019-03-01T12:27:59.774Z,100517.78
2019-03-01T12:30:28.507Z,100520.24
2019-03-01T12:32:57.141Z,100519.67
2019-03-01T12:35:25.750Z,100518.04
2019-03-01T12:37:54.422Z,100517.19
2019-03-01T12:40:27.948Z,100515.56
2019-03-01T12:42:56.553Z,100517.20
2019-03-01T12:45:25.483Z,100522.05
2019-03-01T12:47:54.169Z,100526.50
2019-03-01T12:50:22.781Z,100524.15
2019-03-01T12:52:51.437Z,100529.38
2019-03-01T12:55:27.934Z,100537.86
2019-03-01T12:57:56.636Z,100536.48
2019-03-01T13:00:33.574Z,100543.05
2019-03-01T13:03:05.244Z,100546.05
2019-03-01T13:05:32.662Z,100553.30
2019-03-01T13:08:01.223Z,100563.38
2019-03-01T13:10:36.675Z,100568.36
2019-03-01T13:13:08.161Z,100562.94
2019-03-01T13:15:36.157Z,100559.98
2019-03-01T13:18:04.738Z,100567.05
2019-03-01T13:20:36.967Z,100574.64
2019-03-01T13:23:04.941Z,100583.58
2019-03-01T13:25:34.370Z,100586.77
2019-03-01T13:28:03.094Z,100585.43
2019-03-01T13:30:32.495Z,100591.46
2019-03-01T13:33:03.631Z,100593.37
2019-03-01T13:35:33.353Z,100586.59
2019-03-01T13:38:03.795Z,100593.91
2019-03-01T13:40:32.542Z,100597.45
2019-03-01T13:43:02.166Z,100605.08
2019-03-01T13:45:30.841Z,100602.45
2019-03-01T13:47:59.549Z,100600.95
2019-03-01T13:50:28.331Z,100603.53
2019-03-01T13:52:57.707Z,100609.88
2019-03-01T13:55:27.657Z,100605.17
2019-03-01T13:57:56.462Z,100614.93
2019-03-01T14:00:25.487Z,100621.45
2019-03-01T14:02:54.599Z,100620.66
2019-03-01T14:05:23.581Z,100624.20
2019-03-01T14:07:56.757Z,100620.14
2019-03-01T14:10:25.684Z,100619.98
2019-03-01T14:12:54.489Z,100622.53
2019-03-01T14:15:23.750Z,100619.55
2019-03-01T14:17:52.568Z,100616.89
2019-03-01T14:20:22.728Z,100615.78
2019-03-01T14:22:51.449Z,100622.14
2019-03-01T14:25:20.028Z,100628.57
2019-03-01T14:27:48.664Z,100632.17
2019-03-01T14:30:19.915Z,100638.23
2019-03-01T14:32:48.531Z,100642.88
2019-03-01T14:35:20.501Z,100640.70
2019-03-01T14:37:47.343Z,100635.73
2019-03-01T14:40:22.702Z,100640.11
2019-03-01T14:42:49.930Z,100638.44
2019-03-01T14:45:26.553Z,100633.31
2019-03-01T14:47:55.342Z,100633.91
2019-03-01T14:50:25.318Z,100641.85
2019-03-01T14:52:58.500Z,100646.49
2019-03-01T14:55:43.194Z,100645.40
2019-03-01T14:58:23.735Z,100646.19
2019-03-01T15:00:56.228Z,100647.56
2019-03-01T15:03:38.477Z,100644.03
2019-03-01T15:06:08.755Z,100641.01
2019-03-01T15:08:40.560Z,100644.77
2019-03-01T15:11:11.625Z,100644.52
2019-03-01T15:13:40.717Z,100647.97
2019-03-01T15:16:09.648Z,100647.18
2019-03-01T15:18:41.228Z,100647.74
2019-03-01T15:21:11.566Z,100651.83
2019-03-01T15:23:40.452Z,100644.77
2019-03-01T15:26:09.425Z,100652.12
2019-03-01T15:28:55.303Z,100659.19
2019-03-01T15:31:24.593Z,100663.86
2019-03-01T15:33:54.104Z,100661.16
2019-03-01T15:36:23.391Z,100660.83
2019-03-01T15:38:52.018Z,100661.92
2019-03-01T15:41:20.967Z,100673.09
2019-03-01T15:43:49.679Z,100667.30
2019-03-01T15:46:18.661Z,100667.83
2019-03-01T15:48:47.852Z,100677.17
2019-03-01T15:51:16.490Z,100678.78
2019-03-01T15:53:45.051Z,100688.82
2019-03-01T15:56:13.661Z,100700.81
2019-03-01T15:58:42.544Z,100694.78
2019-03-01T16:01:12.142Z,100699.36
2019-03-01T16:03:45.801Z,100701.30
2019-03-01T16:06:20.057Z,100698.05
2019-03-01T16:08:48.987Z,100697.77
2019-03-01T16:11:18.169Z,100705.67
2019-03-01T16:13:49.113Z,100712.80
2019-03-01T16:16:17.414Z,100713.84
2019-03-01T16:18:46.122Z,100717.63
2019-03-01T16:21:15.257Z,100712.20
2019-03-01T16:23:43.915Z,100716.85
2019-03-01T16:26:13.597Z,100725.25
2019-03-01T16:28:42.549Z,100726.28
2019-03-01T16:31:11.371Z,100728.97
2019-03-01T16:33:40.014Z,100733.62
2019-03-01T16:36:11.515Z,100733.62
2019-03-01T16:38:41.225Z,100743.60
2019-03-01T16:41:10.316Z,100748.03
2019-03-01T16:43:39.005Z,100742.84
2019-03-01T16:46:08.886Z,100748.83
2019-03-01T16:48:37.399Z,100754.84
2019-03-01T16:51:06.545Z,100753.41
2019-03-01T16:53:36.682Z,100755.31
2019-03-01T16:56:06.063Z,100756.13
2019-03-01T16:58:34.645Z,100764.48
2019-03-01T17:01:04.195Z,100768.03
2019-03-01T17:03:33.312Z,100773.30
2019-03-01T17:06:02.258Z,100777.13
2019-03-01T17:08:30.775Z,100782.53
2019-03-01T17:11:02.583Z,100785.51
2019-03-01T17:13:30.280Z,100786.66
2019-03-01T17:15:58.813Z,100791.48
2019-03-01T17:18:27.320Z,100795.25
2019-03-01T17:20:56.228Z,100796.36
2019-03-01T17:23:25.159Z,100795.46
2019-03-01T17:25:53.768Z,100807.42
2019-03-01T17:28:26.366Z,100805.44
2019-03-01T17:30:52.668Z,100802.59
2019-03-01T17:33:21.260Z,100809.97
2019-03-01T17:35:49.841Z,100816.37
2019-03-01T17:38:18.387Z,100811.71
2019-03-01T17:40:47.269Z,100817.93
2019-03-01T17:43:15.964Z,100819.87
2019-03-01T17:45:44.708Z,100825.91
2019-03-01T17:48:13.259Z,100829.39
2019-03-01T17:50:44.705Z,100836.20
2019-03-01T17:53:12.130Z,100833.77
2019-03-01T17:55:40.742Z,100839.55
2019-03-01T17:58:09.715Z,100844.08
2019-03-01T18:00:40.196Z,100849.52
2019-03-01T18:03:08.860Z,100852.97
2019-03-01T18:05:40.742Z,100852.38
2019-03-01T18:08:07.980Z,100857.10
2019-03-01T18:10:36.988Z,100865.98
2019-03-01T18:13:05.719Z,100864.05
2019-03-01T18:15:34.354Z,100866.23
2019-03-01T18:18:03.162Z,100870.80
2019-03-01T18:20:33.989Z,100869.43
2019-03-01T18:23:03.204Z,100872.53
2019-03-01T18:25:32.197Z,100875.06
2019-03-01T18:28:00.907Z,100873.34
2019-03-01T18:30:36.338Z,100872.59
2019-03-01T18:33:05.034Z,100882.56
2019-03-01T18:35:34.659Z,100875.48
2019-03-01T18:38:03.575Z,100889.52
2019-03-01T18:40:32.746Z,100892.39
2019-03-01T18:43:01.405Z,100900.66
2019-03-01T18:45:31.207Z,100900.17
2019-03-01T18:48:01.523Z,100908.73
2019-03-01T18:50:36.971Z,100914.97
2019-03-01T18:53:06.241Z,100923.80
2019-03-01T18:55:34.858Z,100927.66
2019-03-01T18:58:04.057Z,100924.63
2019-03-01T19:00:41.591Z,100926.95
2019-03-01T19:03:10.509Z,100934.98
2019-03-01T19:05:51.247Z,100939.11
2019-03-01T19:08:24.021Z,100939.27
2019-03-01T19:10:54.477Z,100951.71
2019-03-01T19:13:25.659Z,100948.41
2019-03-01T19:15:54.832Z,100952.56
2019-03-01T19:18:23.953Z,100956.00
2019-03-01T19:20:53.837Z,100954.72
2019-03-01T19:23:22.817Z,100961.67
2019-03-01T19:25:51.943Z,100959.73
2019-03-01T19:28:23.633Z,100954.12
2019-03-01T19:30:52.082Z,100964.97
2019-03-01T19:33:22.251Z,100965.95
2019-03-01T19:35:50.916Z,100965.50
2019-03-01T19:38:21.829Z,100969.34
2019-03-01T19:40:50.095Z,100968.42
2019-03-01T19:43:19.872Z,100972.21
2019-03-01T19:45:48.856Z,100973.53
2019-03-01T19:48:17.441Z,100977.52
2019-03-01T19:50:46.165Z,100975.25
2019-03-01T19:53:15.628Z,100977.11
2019-03-01T19:55:47.315Z,100979.45
2019-03-01T19:58:16.693Z,100981.59
2019-03-01T20:00:45.023Z,100977.90
2019-03-01T20:03:13.600Z,100980.72
2019-03-01T20:05:42.627Z,100984.66
2019-03-01T20:08:11.430Z,100982.63
2019-03-01T20:10:43.046Z,100988.08
2019-03-01T20:13:16.477Z,100988.86
2019-03-01T20:15:46.243Z,100995.72
2019-03-01T20:18:16.009Z,101005.15
2019-03-01T20:20:47.193Z,100998.07
2019-03-01T20:23:15.902Z,100999.00
2019-03-01T20:25:47.603Z,100998.50
2019-03-01T20:28:16.304Z,101001.42
2019-03-01T20:30:45.312Z,101004.60
2019-03-01T20:33:13.907Z,101005.41
2019-03-01T20:35:43.528Z,101008.00
2019-03-01T20:38:12.448Z,101010.28
2019-03-01T20:40:41.104Z,101013.84
2019-03-01T20:43:11.899Z,101015.44
2019-03-01T20:45:40.943Z,101014.91
2019-03-01T20:48:09.497Z,101017.69
2019-03-01T20:50:39.513Z,101017.03
2019-03-01T20:53:10.089Z,101021.23
2019-03-01T20:55:38.910Z,101020.53
2019-03-01T20:58:07.774Z,101016.37
2019-03-01T21:00:37.215Z,101018.88
2019-03-01T21:03:06.010Z,101022.91
2019-03-01T21:05:34.712Z,101022.28
2019-03-01T21:08:03.704Z,101025.64
2019-03-01T21:10:33.174Z,101027.89
2019-03-01T21:13:01.918Z,101028.12
2019-03-01T21:15:30.699Z,101032.52
2019-03-01T21:18:00.121Z,101033.95
2019-03-01T21:20:28.757Z,101029.28
2019-03-01T21:22:57.421Z,101031.15
2019-03-01T21:25:27.159Z,101032.33
2019-03-01T21:27:57.669Z,101028.65
2019-03-01T21:30:31.066Z,101031.02
2019-03-01T21:33:00.090Z,101034.18
2019-03-01T21:35:35.260Z,101033.44
2019-03-01T21:38:04.868Z,101029.59
2019-03-01T21:40:34.584Z,101030.88
2019-03-01T21:43:05.245Z,101033.55
2019-03-01T21:45:33.815Z,101041.48
2019-03-01T21:48:02.901Z,101045.23
2019-03-01T21:50:31.481Z,101048.55
2019-03-01T21:53:01.688Z,101050.26
2019-03-01T21:55:31.398Z,101047.46
2019-03-01T21:58:03.400Z,101043.59
2019-03-01T22:00:31.444Z,101037.50
2019-03-01T22:03:00.136Z,101047.13
2019-03-01T22:05:28.687Z,101047.62
2019-03-01T22:07:57.309Z,101050.56
2019-03-01T22:10:25.957Z,101049.70
2019-03-01T22:12:56.837Z,101052.12
2019-03-01T22:15:27.094Z,101045.98
2019-03-01T22:17:57.081Z,101045.06
2019-03-01T22:20:25.679Z,101039.71
2019-03-01T22:22:54.453Z,101045.66
2019-03-01T22:25:23.328Z,101042.20
2019-03-01T22:27:51.872Z,101040.22
2019-03-01T22:30:33.660Z,101043.67
2019-03-01T22:33:02.621Z,101053.16
2019-03-01T22:35:31.157Z,101041.16
2019-03-01T22:38:00.979Z,101047.00
2019-03-01T22:40:30.104Z,101044.69
2019-03-01T22:42:58.678Z,101049.41
2019-03-01T22:45:27.677Z,101042.33
2019-03-01T22:47:56.541Z,101043.98
2019-03-01T22:50:25.149Z,101045.62
2019-03-01T22:52:54.158Z,101048.71
2019-03-01T22:55:22.688Z,101045.03
2019-03-01T22:57:51.585Z,101053.25
2019-03-01T23:00:54.580Z,101057.46
2019-03-01T23:03:22.832Z,101056.00
2019-03-01T23:05:51.342Z,101059.42
2019-03-01T23:08:19.913Z,101064.12
2019-03-01T23:10:48.423Z,101071.17
2019-03-01T23:13:20.753Z,101063.72
2019-03-01T23:15:47.313Z,101067.52
2019-03-01T23:18:15.879Z,101062.89
2019-03-01T23:20:44.434Z,101061.42
2019-03-01T23:23:12.998Z,101059.20
2019-03-01T23:25:42.852Z,101058.78
2019-03-01T23:28:11.803Z,101066.05
2019-03-01T23:30:40.339Z,101058.78
2019-03-01T23:33:08.992Z,101057.35
2019-03-01T23:35:38.306Z,101059.20
2019-03-01T23:38:06.907Z,101056.19
2019-03-01T23:40:35.800Z,101060.48
2019-03-01T23:43:05.514Z,101064.61
2019-03-01T23:45:34.029Z,101059.61
2019-03-01T23:48:02.618Z,101067.56
2019-03-01T23:50:31.514Z,101072.45
2019-03-01T23:53:01.464Z,101070.46
2019-03-01T23:55:30.020Z,101075.77
2019-03-01T23:58:05.725Z,101065.87
